Time;durP1;ratioP1;P1;durP2;ratioP2;P2;SDS_P1;SDS_P2;PMS_P1;PMS_P2;Temp;Humidity;BMP_temperature;BMP_pressure;BME280_temperature;BME280_humidity;BME280_pressure;Samples;Min_cycle;Max_cycle;Signal;HPM_P1;HPM_P2
2022/10/13 00:00:21;;;;;;;39.20;22.73;;;10.10;99.90;;;;;;5014964;28;20397;-73
2022/10/13 00:02:47;;;;;;;38.67;21.90;;;10.10;99.90;;;;;;5015545;28;20400;-73
2022/10/13 00:05:12;;;;;;;35.03;21.80;;;10.10;99.90;;;;;;5015382;28;20391;-72
2022/10/13 00:07:38;;;;;;;35.20;21.80;;;10.00;99.90;;;;;;5014852;28;20544;-73
2022/10/13 00:10:04;;;;;;;38.40;21.98;;;10.10;99.90;;;;;;5014927;28;20388;-72
2022/10/13 00:12:32;;;;;;;41.30;23.13;;;10.10;99.90;;;;;;5014227;28;20480;-71
2022/10/13 00:14:58;;;;;;;37.92;21.38;;;10.10;99.90;;;;;;5012917;28;20443;-71
2022/10/13 00:17:23;;;;;;;40.97;22.50;;;10.10;99.90;;;;;;5014225;28;20785;-71
2022/10/13 00:19:49;;;;;;;39.45;22.00;;;10.10;99.90;;;;;;5014112;28;20963;-72
2022/10/13 00:22:14;;;;;;;37.25;21.92;;;10.10;99.90;;;;;;5014277;28;20428;-72
2022/10/13 00:24:40;;;;;;;41.45;22.70;;;10.10;99.90;;;;;;5014138;28;20408;-71
2022/10/13 00:27:05;;;;;;;40.47;22.02;;;10.20;99.90;;;;;;5014108;28;20418;-71
2022/10/13 00:29:31;;;;;;;36.50;22.77;;;10.10;99.90;;;;;;5014247;28;20416;-71
2022/10/13 00:31:56;;;;;;;40.03;21.80;;;10.10;99.90;;;;;;5013992;28;20416;-72
2022/10/13 00:34:22;;;;;;;33.70;21.73;;;10.20;99.90;;;;;;5013764;28;20826;-71
2022/10/13 00:36:47;;;;;;;41.37;22.47;;;10.20;99.90;;;;;;5013964;28;20424;-71
2022/10/13 00:39:13;;;;;;;42.55;22.58;;;10.20;99.90;;;;;;5013885;28;20450;-71
2022/10/13 00:41:39;;;;;;;36.55;21.60;;;10.30;99.90;;;;;;5014058;28;20492;-72
2022/10/13 00:44:25;;;;;;;37.22;21.83;;;10.30;99.90;;;;;;5013963;28;20389;-72
2022/10/13 00:46:51;;;;;;;34.92;22.33;;;10.30;99.90;;;;;;5013551;28;20408;-71
2022/10/13 00:49:17;;;;;;;46.65;23.33;;;10.30;99.90;;;;;;5012105;28;20384;-71
2022/10/13 00:51:45;;;;;;;39.08;22.40;;;10.30;99.90;;;;;;5013229;28;20435;-71
2022/10/13 00:54:15;;;;;;;38.17;23.13;;;10.40;99.90;;;;;;5013255;28;20396;-71
2022/10/13 00:56:42;;;;;;;39.38;22.63;;;10.40;99.90;;;;;;5013336;28;20400;-71
2022/10/13 00:59:13;;;;;;;35.90;22.17;;;10.40;99.90;;;;;;5013504;28;20781;-72
2022/10/13 01:01:39;;;;;;;39.55;22.15;;;10.50;99.90;;;;;;5013227;28;20451;-72
2022/10/13 01:04:05;;;;;;;45.08;22.02;;;10.50;99.90;;;;;;5013192;28;20393;-71
2022/10/13 01:06:31;;;;;;;42.85;23.17;;;10.60;99.90;;;;;;5012324;28;20423;-70
2022/10/13 01:08:56;;;;;;;38.95;22.10;;;10.50;99.90;;;;;;5013532;28;20730;-72
2022/10/13 01:11:43;;;;;;;36.37;21.30;;;10.60;99.90;;;;;;5013181;28;20393;-71
2022/10/13 01:14:09;;;;;;;40.33;23.60;;;10.60;99.90;;;;;;5011629;28;20397;-71
2022/10/13 01:17:14;;;;;;;37.83;22.53;;;10.60;99.90;;;;;;5012837;28;20889;-71
2022/10/13 01:20:11;;;;;;;36.85;22.50;;;10.60;99.90;;;;;;5012926;28;20403;-71
2022/10/13 01:22:55;;;;;;;36.65;21.58;;;10.60;99.90;;;;;;5010682;28;20468;-71
2022/10/13 01:25:52;;;;;;;40.75;22.52;;;10.60;99.90;;;;;;4993562;28;20872;-71
2022/10/13 01:28:55;;;;;;;36.25;20.70;;;10.60;99.90;;;;;;5008980;28;20401;-72
2022/10/13 01:31:41;;;;;;;37.70;22.27;;;10.60;99.90;;;;;;5012647;28;20385;-72
2022/10/13 01:34:25;;;;;;;34.33;22.30;;;10.70;99.90;;;;;;5012070;28;20396;-72
2022/10/13 01:37:18;;;;;;;34.28;21.20;;;10.70;99.90;;;;;;5012799;28;20385;-72
2022/10/13 01:39:52;;;;;;;37.13;21.95;;;10.80;99.90;;;;;;5012022;28;20902;-71
2022/10/13 01:42:22;;;;;;;35.00;21.90;;;10.70;99.90;;;;;;5012212;28;20425;-71
2022/10/13 01:44:53;;;;;;;36.38;21.35;;;10.70;99.90;;;;;;5012586;28;20380;-72
2022/10/13 01:47:21;;;;;;;35.63;21.95;;;10.70;99.90;;;;;;5012672;28;20392;-72
2022/10/13 01:49:49;;;;;;;36.22;22.20;;;10.70;99.90;;;;;;5012407;28;20710;-72
2022/10/13 01:52:17;;;;;;;40.28;23.25;;;10.80;99.90;;;;;;5012773;28;20844;-72
2022/10/13 01:54:47;;;;;;;38.55;22.45;;;10.80;99.90;;;;;;5012315;28;20388;-72
2022/10/13 01:57:36;;;;;;;38.15;22.00;;;10.80;99.90;;;;;;5012445;28;20743;-72
2022/10/13 02:00:23;;;;;;;37.42;21.77;;;10.80;99.90;;;;;;5012015;28;20921;-72
2022/10/13 02:02:57;;;;;;;36.70;21.30;;;10.80;99.90;;;;;;5011537;28;20397;-72
2022/10/13 02:05:32;;;;;;;36.97;22.13;;;10.90;99.90;;;;;;5012511;28;20409;-72
2022/10/13 02:08:06;;;;;;;33.65;21.60;;;11.00;99.90;;;;;;5012139;28;20951;-72
2022/10/13 02:10:57;;;;;;;41.40;22.80;;;10.90;99.90;;;;;;5012359;28;20758;-73
2022/10/13 02:13:26;;;;;;;34.53;22.10;;;11.10;99.90;;;;;;5012275;28;20391;-72
2022/10/13 02:15:55;;;;;;;37.40;21.25;;;11.00;99.90;;;;;;5011866;28;20456;-72
2022/10/13 02:18:27;;;;;;;41.40;22.93;;;11.00;99.90;;;;;;5012116;28;20400;-72
2022/10/13 02:20:53;;;;;;;33.35;22.00;;;11.00;99.90;;;;;;5011830;28;20405;-72
2022/10/13 02:23:20;;;;;;;36.17;21.40;;;11.00;99.90;;;;;;5011927;28;20419;-72
2022/10/13 02:25:47;;;;;;;41.92;23.40;;;11.00;99.90;;;;;;5011914;28;20384;-72
2022/10/13 02:28:14;;;;;;;34.28;21.90;;;10.90;99.90;;;;;;5011989;28;20741;-72
2022/10/13 02:30:40;;;;;;;33.05;21.70;;;10.90;99.90;;;;;;5012146;28;20384;-72
2022/10/13 02:33:07;;;;;;;36.70;21.43;;;10.90;99.90;;;;;;5011814;28;21028;-72
2022/10/13 02:35:33;;;;;;;37.73;21.37;;;11.00;99.90;;;;;;5012211;28;20957;-73
2022/10/13 02:37:59;;;;;;;41.60;22.05;;;11.00;99.90;;;;;;5011724;28;20408;-73
2022/10/13 02:40:25;;;;;;;35.42;21.75;;;11.00;99.90;;;;;;5011730;28;20951;-72
2022/10/13 02:42:50;;;;;;;39.97;21.88;;;11.10;99.90;;;;;;5011331;28;20381;-72
2022/10/13 02:45:16;;;;;;;39.93;21.40;;;11.10;99.90;;;;;;5011794;28;20392;-73
2022/10/13 02:47:42;;;;;;;36.00;21.20;;;11.10;99.90;;;;;;5011568;28;20665;-72
2022/10/13 02:50:09;;;;;;;37.35;21.50;;;11.20;99.90;;;;;;5011737;28;20952;-72
2022/10/13 02:52:34;;;;;;;38.67;21.80;;;11.20;99.90;;;;;;5011301;28;20397;-73
2022/10/13 02:55:00;;;;;;;36.97;20.85;;;11.20;99.90;;;;;;5009899;28;20407;-72
2022/10/13 02:57:25;;;;;;;36.53;21.80;;;11.20;99.90;;;;;;5011543;28;20826;-72
2022/10/13 02:59:51;;;;;;;32.90;21.15;;;11.20;99.90;;;;;;5011714;28;20431;-72
2022/10/13 03:02:17;;;;;;;35.50;20.67;;;11.20;99.90;;;;;;5011273;28;20393;-72
2022/10/13 03:04:43;;;;;;;33.80;21.27;;;11.10;99.90;;;;;;5011617;28;20385;-73
2022/10/13 03:07:09;;;;;;;42.15;21.90;;;11.20;99.90;;;;;;5011759;28;20423;-72
2022/10/13 03:09:35;;;;;;;36.60;21.73;;;11.20;99.90;;;;;;5011145;28;20392;-72
2022/10/13 03:12:00;;;;;;;39.67;22.00;;;11.20;99.90;;;;;;5011170;28;20388;-72
2022/10/13 03:14:26;;;;;;;40.40;22.53;;;11.20;99.90;;;;;;5010879;28;20842;-72
2022/10/13 03:16:51;;;;;;;37.13;21.00;;;11.30;99.90;;;;;;5011039;28;20385;-72
2022/10/13 03:19:17;;;;;;;38.73;21.50;;;11.30;99.90;;;;;;5011124;28;20400;-72
2022/10/13 03:21:42;;;;;;;37.03;21.67;;;11.30;99.90;;;;;;5010770;28;20412;-72
2022/10/13 03:24:08;;;;;;;35.28;21.95;;;11.20;99.90;;;;;;5010943;28;20403;-72
2022/10/13 03:26:34;;;;;;;40.25;21.92;;;11.20;99.90;;;;;;5011116;28;20889;-72
2022/10/13 03:29:00;;;;;;;33.50;21.20;;;11.20;99.90;;;;;;5011000;28;20389;-72
2022/10/13 03:31:26;;;;;;;35.08;21.65;;;11.20;99.90;;;;;;5010928;28;20397;-72
2022/10/13 03:33:51;;;;;;;34.33;21.52;;;11.20;99.90;;;;;;5011117;28;20393;-73
2022/10/13 03:36:17;;;;;;;34.13;20.30;;;11.10;99.90;;;;;;5011361;28;20888;-73
2022/10/13 03:38:43;;;;;;;42.60;23.80;;;11.20;99.90;;;;;;5011207;28;20404;-73
2022/10/13 03:41:17;;;;;;;38.65;20.92;;;11.20;99.90;;;;;;5010403;28;20431;-73
2022/10/13 03:43:43;;;;;;;35.67;21.20;;;11.20;99.90;;;;;;5011045;28;20881;-73
2022/10/13 03:46:14;;;;;;;37.58;21.20;;;11.20;99.90;;;;;;5011340;28;20393;-73
2022/10/13 03:48:39;;;;;;;38.00;21.90;;;11.20;99.90;;;;;;5012109;28;20389;-73
2022/10/13 03:51:07;;;;;;;34.43;21.40;;;11.20;99.90;;;;;;5013185;28;20388;-73
2022/10/13 03:53:34;;;;;;;37.47;21.85;;;11.20;99.90;;;;;;5038307;23;20403;-76
2022/10/13 03:55:59;;;;;;;37.65;21.90;;;11.20;99.90;;;;;;5011645;28;20872;-76
2022/10/13 03:58:27;;;;;;;33.13;20.93;;;11.10;99.90;;;;;;5011328;28;20414;-77
2022/10/13 04:00:53;;;;;;;35.50;20.23;;;11.20;99.90;;;;;;5015562;28;20420;-75
2022/10/13 04:03:19;;;;;;;37.20;21.70;;;11.20;99.90;;;;;;5018069;28;20492;-76
2022/10/13 04:05:44;;;;;;;34.90;20.40;;;11.20;99.90;;;;;;5019665;28;20384;-76
2022/10/13 04:08:11;;;;;;;32.50;20.50;;;11.20;99.90;;;;;;5017024;28;20384;-76
2022/10/13 04:10:36;;;;;;;37.97;21.52;;;11.20;99.90;;;;;;5011329;28;20446;-76
2022/10/13 04:13:02;;;;;;;38.30;20.90;;;11.20;99.90;;;;;;5010977;28;20800;-76
2022/10/13 04:15:28;;;;;;;42.30;20.70;;;11.20;99.90;;;;;;5011159;28;20951;-76
2022/10/13 04:17:53;;;;;;;34.70;21.07;;;11.10;99.90;;;;;;5011144;28;20396;-76
2022/10/13 04:20:19;;;;;;;44.70;22.00;;;11.10;99.90;;;;;;5011143;28;20931;-76
2022/10/13 04:22:44;;;;;;;34.63;20.30;;;11.10;99.90;;;;;;5010884;28;20400;-76
2022/10/13 04:25:10;;;;;;;40.35;21.42;;;11.20;99.90;;;;;;5013122;28;20765;-76
2022/10/13 04:27:38;;;;;;;39.97;20.50;;;11.30;99.90;;;;;;5014154;28;20392;-76
2022/10/13 04:30:05;;;;;;;38.70;20.30;;;11.40;99.90;;;;;;5013450;28;20397;-76
2022/10/13 04:32:31;;;;;;;38.10;20.40;;;11.40;99.90;;;;;;5014631;28;20392;-77
2022/10/13 04:34:57;;;;;;;35.28;19.95;;;11.50;99.90;;;;;;5012979;28;20401;-76
2022/10/13 04:37:23;;;;;;;34.78;20.10;;;11.50;99.90;;;;;;5014373;28;20412;-76
2022/10/13 04:39:49;;;;;;;35.55;19.50;;;11.50;99.90;;;;;;5014269;28;20429;-77
2022/10/13 04:42:14;;;;;;;37.20;21.10;;;11.50;99.90;;;;;;5013692;28;20486;-76
2022/10/13 04:44:40;;;;;;;36.60;20.08;;;11.60;99.90;;;;;;5013995;28;20400;-76
2022/10/13 04:47:06;;;;;;;35.20;20.23;;;11.50;99.90;;;;;;5013724;28;20387;-76
2022/10/13 04:49:32;;;;;;;38.03;20.33;;;11.40;99.90;;;;;;5014589;28;20391;-76
2022/10/13 04:51:57;;;;;;;38.95;19.83;;;11.40;99.90;;;;;;5014550;28;20773;-76
2022/10/13 04:54:23;;;;;;;34.07;19.53;;;11.40;99.90;;;;;;5014824;28;20873;-77
2022/10/13 04:56:48;;;;;;;35.50;20.70;;;11.40;99.90;;;;;;5015950;28;20761;-77
2022/10/13 04:59:14;;;;;;;47.50;20.90;;;11.40;99.90;;;;;;5015242;28;20388;-77
2022/10/13 05:01:40;;;;;;;38.25;19.90;;;11.40;99.90;;;;;;5015008;28;20416;-76
2022/10/13 05:04:07;;;;;;;31.63;20.00;;;11.40;99.90;;;;;;5013869;28;20381;-77
2022/10/13 05:06:34;;;;;;;31.48;19.60;;;11.50;99.90;;;;;;5012171;28;20508;-76
2022/10/13 05:09:00;;;;;;;39.78;20.10;;;11.60;99.90;;;;;;5013720;28;20385;-76
2022/10/13 05:11:27;;;;;;;34.13;19.67;;;11.50;99.90;;;;;;5015923;28;20896;-76
2022/10/13 05:13:52;;;;;;;37.75;20.80;;;11.50;99.90;;;;;;5013560;28;20396;-77
2022/10/13 05:16:20;;;;;;;32.70;20.00;;;11.50;99.90;;;;;;5013485;28;20393;-77
2022/10/13 05:18:46;;;;;;;43.33;20.20;;;11.40;99.90;;;;;;5013567;28;20796;-76
2022/10/13 05:21:18;;;;;;;34.00;20.13;;;11.40;99.90;;;;;;5013483;28;20889;-77
2022/10/13 05:23:44;;;;;;;34.60;20.20;;;11.40;99.90;;;;;;5013995;28;20381;-77
2022/10/13 05:26:12;;;;;;;33.42;19.00;;;11.50;99.90;;;;;;5014569;28;20384;-76
2022/10/13 05:28:39;;;;;;;34.90;19.87;;;11.50;99.90;;;;;;5014751;28;20489;-77
2022/10/13 05:31:15;;;;;;;31.23;19.60;;;11.40;99.90;;;;;;5013803;28;20420;-77
2022/10/13 05:33:41;;;;;;;36.95;20.13;;;11.40;99.90;;;;;;5014155;28;20393;-77
2022/10/13 05:36:10;;;;;;;36.85;19.48;;;11.40;99.90;;;;;;5012976;28;20408;-77
2022/10/13 05:38:36;;;;;;;36.97;18.58;;;11.50;99.90;;;;;;5014404;28;20389;-77
2022/10/13 05:41:07;;;;;;;34.10;19.30;;;11.40;99.90;;;;;;5014457;28;20766;-77
2022/10/13 05:43:33;;;;;;;32.53;19.30;;;11.40;99.90;;;;;;5013810;28;20385;-77
2022/10/13 05:45:59;;;;;;;34.07;19.53;;;11.30;99.90;;;;;;5013778;28;20438;-77
2022/10/13 05:48:26;;;;;;;34.47;20.08;;;11.30;99.90;;;;;;5014738;28;20396;-77
2022/10/13 05:50:52;;;;;;;36.58;19.52;;;11.30;99.90;;;;;;5014570;28;20389;-77
2022/10/13 05:53:19;;;;;;;33.85;19.92;;;11.30;99.90;;;;;;5012596;28;20404;-76
2022/10/13 05:55:46;;;;;;;33.75;20.10;;;11.30;99.90;;;;;;5012310;28;21918;-77
2022/10/13 05:58:12;;;;;;;31.33;19.38;;;11.20;99.90;;;;;;5017029;28;20389;-76
2022/10/13 06:00:40;;;;;;;43.13;21.95;;;11.20;99.90;;;;;;5018782;28;20486;-75
2022/10/13 06:03:09;;;;;;;37.27;20.40;;;11.20;99.90;;;;;;5020475;28;20428;-76
2022/10/13 06:05:35;;;;;;;35.63;20.02;;;11.20;99.90;;;;;;5020251;28;20810;-77
2022/10/13 06:08:01;;;;;;;34.57;19.00;;;11.20;99.90;;;;;;5015450;28;20424;-77
2022/10/13 06:10:27;;;;;;;36.45;19.58;;;11.20;99.90;;;;;;5013751;28;20393;-76
2022/10/13 06:12:52;;;;;;;36.97;19.80;;;11.30;99.90;;;;;;5014097;28;20400;-77
2022/10/13 06:15:18;;;;;;;34.58;19.00;;;11.30;99.90;;;;;;5014449;28;20385;-77
2022/10/13 06:17:44;;;;;;;36.60;20.05;;;11.30;99.90;;;;;;5013650;28;20412;-77
2022/10/13 06:20:10;;;;;;;30.88;19.20;;;11.20;99.90;;;;;;5014621;28;20915;-77
2022/10/13 06:22:36;;;;;;;34.65;19.65;;;11.20;99.90;;;;;;5013296;28;20484;-77
2022/10/13 06:25:05;;;;;;;39.25;19.60;;;11.20;99.90;;;;;;5015114;28;20888;-77
2022/10/13 06:27:31;;;;;;;35.28;18.92;;;11.20;99.90;;;;;;5016458;28;20385;-76
2022/10/13 06:29:56;;;;;;;31.02;19.20;;;11.20;99.90;;;;;;5019304;28;20408;-76
2022/10/13 06:32:22;;;;;;;40.80;19.37;;;11.30;99.90;;;;;;5018545;28;20385;-75
2022/10/13 06:34:48;;;;;;;30.60;18.87;;;11.40;99.90;;;;;;5014412;28;20575;-77
2022/10/13 06:37:13;;;;;;;36.63;19.30;;;11.30;99.90;;;;;;5012627;28;20389;-77
2022/10/13 06:39:39;;;;;;;28.42;19.23;;;11.40;99.90;;;;;;5012106;28;20457;-77
2022/10/13 06:42:04;;;;;;;39.15;21.15;;;11.40;99.90;;;;;;5012033;28;20535;-76
2022/10/13 06:44:31;;;;;;;28.50;18.75;;;11.40;99.90;;;;;;5011790;28;20424;-77
2022/10/13 06:46:57;;;;;;;33.93;19.20;;;11.50;99.90;;;;;;5013369;28;20875;-77
2022/10/13 06:49:23;;;;;;;32.83;19.75;;;11.60;99.90;;;;;;5013521;28;20377;-77
2022/10/13 06:51:48;;;;;;;31.00;19.08;;;11.60;99.80;;;;;;5013719;28;20393;-77
2022/10/13 06:54:14;;;;;;;30.27;19.13;;;11.80;96.90;;;;;;5012489;28;20408;-77
2022/10/13 06:56:40;;;;;;;28.83;18.07;;;11.80;96.00;;;;;;5012246;28;20388;-76
2022/10/13 06:59:06;;;;;;;29.70;18.07;;;11.90;94.10;;;;;;5012061;28;20393;-76
2022/10/13 07:01:31;;;;;;;31.80;17.30;;;12.00;90.40;;;;;;5011943;28;20416;-77
2022/10/13 07:03:57;;;;;;;37.93;19.03;;;12.00;89.90;;;;;;5011921;28;20408;-76
2022/10/13 07:06:23;;;;;;;35.17;19.50;;;12.00;89.90;;;;;;5013015;28;20493;-76
2022/10/13 07:08:48;;;;;;;37.10;18.10;;;12.20;88.20;;;;;;5013610;28;20754;-77
2022/10/13 07:11:14;;;;;;;31.47;17.30;;;12.20;87.40;;;;;;5014012;28;20388;-77
2022/10/13 07:13:41;;;;;;;28.95;17.20;;;12.20;87.50;;;;;;5013627;28;20377;-77
2022/10/13 07:16:07;;;;;;;35.08;17.25;;;12.30;84.10;;;;;;5015217;28;20397;-77
2022/10/13 07:18:33;;;;;;;32.70;17.15;;;12.40;84.10;;;;;;5013314;28;20384;-77
2022/10/13 07:20:59;;;;;;;28.48;16.95;;;12.40;82.90;;;;;;5013206;28;20838;-77
2022/10/13 07:23:25;;;;;;;24.75;16.90;;;12.50;82.20;;;;;;5013225;28;20404;-77
2022/10/13 07:25:51;;;;;;;25.45;16.63;;;12.50;81.90;;;;;;5012686;28;20857;-77
2022/10/13 07:28:17;;;;;;;27.58;16.65;;;12.60;80.70;;;;;;5011953;28;20849;-77
2022/10/13 07:30:43;;;;;;;27.15;16.55;;;12.70;78.10;;;;;;5012541;28;20393;-77
2022/10/13 07:33:09;;;;;;;26.15;15.88;;;12.70;79.00;;;;;;5012938;28;20388;-77
2022/10/13 07:35:37;;;;;;;26.50;15.93;;;12.60;79.50;;;;;;5012563;28;20822;-77
2022/10/13 07:38:03;;;;;;;25.58;16.00;;;12.80;78.50;;;;;;5011735;28;20388;-77
2022/10/13 07:40:29;;;;;;;32.77;15.77;;;12.80;77.60;;;;;;5012849;28;20409;-76
2022/10/13 07:42:56;;;;;;;30.60;16.80;;;12.90;75.00;;;;;;5012781;28;20860;-76
2022/10/13 07:45:22;;;;;;;31.37;16.53;;;13.00;74.30;;;;;;5015349;28;20380;-76
2022/10/13 07:47:48;;;;;;;30.35;16.50;;;13.20;72.90;;;;;;5017100;28;20392;-77
2022/10/13 07:50:13;;;;;;;27.15;16.23;;;13.20;71.40;;;;;;5016164;28;20399;-77
2022/10/13 07:52:39;;;;;;;29.73;15.18;;;13.40;70.50;;;;;;5018859;28;20384;-77
2022/10/13 07:55:05;;;;;;;26.80;16.30;;;13.60;67.90;;;;;;5017570;28;20408;-77
2022/10/13 07:57:31;;;;;;;21.35;14.20;;;13.70;66.50;;;;;;5018091;28;20451;-77
2022/10/13 07:59:56;;;;;;;28.40;15.50;;;13.70;66.60;;;;;;5019994;28;20758;-76
2022/10/13 08:02:22;;;;;;;24.50;15.00;;;13.90;65.90;;;;;;5017858;28;20471;-77
2022/10/13 08:04:48;;;;;;;27.52;16.05;;;14.10;64.10;;;;;;5018960;28;20558;-77
2022/10/13 08:07:15;;;;;;;27.77;15.55;;;14.30;63.10;;;;;;5017739;28;20723;-77
2022/10/13 08:09:41;;;;;;;31.33;16.17;;;14.60;59.10;;;;;;5021393;28;20665;-76
2022/10/13 08:12:07;;;;;;;27.52;15.80;;;14.70;55.70;;;;;;5020676;28;20841;-76
2022/10/13 08:14:32;;;;;;;27.70;14.60;;;14.90;54.40;;;;;;5018027;28;20399;-78
2022/10/13 08:16:58;;;;;;;28.60;17.10;;;14.90;54.30;;;;;;5020873;28;20385;-77
2022/10/13 08:19:25;;;;;;;27.03;16.63;;;15.00;53.40;;;;;;5019350;28;20385;-77
2022/10/13 08:21:51;;;;;;;25.92;16.70;;;15.00;54.30;;;;;;5018354;28;20412;-77
2022/10/13 08:24:18;;;;;;;26.63;16.27;;;14.80;54.20;;;;;;5017509;28;20747;-77
2022/10/13 08:26:45;;;;;;;28.47;16.57;;;14.80;54.50;;;;;;5017990;28;20417;-76
2022/10/13 08:29:11;;;;;;;29.95;16.75;;;14.80;55.50;;;;;;5016406;28;20478;-76
2022/10/13 08:31:37;;;;;;;30.75;17.88;;;14.70;55.90;;;;;;5016104;28;20393;-77
2022/10/13 08:34:02;;;;;;;33.73;17.90;;;14.70;56.50;;;;;;5016481;28;20396;-77
2022/10/13 08:36:28;;;;;;;58.10;19.23;;;14.70;56.90;;;;;;5017373;28;20415;-77
2022/10/13 08:38:53;;;;;;;30.02;17.58;;;14.60;56.90;;;;;;5015760;28;20412;-77
2022/10/13 08:41:24;;;;;;;30.67;18.30;;;14.70;57.70;;;;;;5015809;28;20415;-76
2022/10/13 08:44:04;;;;;;;30.75;18.05;;;14.60;57.50;;;;;;5014851;28;20389;-77
2022/10/13 08:46:42;;;;;;;33.20;16.35;;;14.70;57.00;;;;;;5014345;28;20380;-76
2022/10/13 08:49:08;;;;;;;29.35;16.20;;;14.90;55.80;;;;;;5015170;28;20384;-76
2022/10/13 08:51:35;;;;;;;40.87;18.43;;;15.00;55.20;;;;;;5014280;28;20471;-76
2022/10/13 08:54:00;;;;;;;29.42;16.58;;;15.00;54.10;;;;;;5014654;28;20404;-76
2022/10/13 08:56:30;;;;;;;29.58;16.90;;;15.00;54.30;;;;;;5013355;28;20463;-76
2022/10/13 08:58:56;;;;;;;30.00;16.23;;;15.10;54.40;;;;;;5014232;28;20545;-76
2022/10/13 09:01:31;;;;;;;32.85;16.60;;;15.20;54.00;;;;;;5014510;28;20409;-76
2022/10/13 09:04:14;;;;;;;27.30;16.17;;;15.40;51.80;;;;;;5015707;28;20389;-77
2022/10/13 09:06:47;;;;;;;37.27;16.90;;;15.60;50.50;;;;;;5019441;28;20393;-76
2022/10/13 09:09:14;;;;;;;25.05;15.45;;;15.70;48.40;;;;;;5016496;28;20746;-76
2022/10/13 09:11:43;;;;;;;33.10;16.48;;;15.80;47.30;;;;;;5015987;28;20385;-76
2022/10/13 09:14:24;;;;;;;25.90;16.38;;;15.80;47.80;;;;;;5015278;28;20393;-75
2022/10/13 09:16:51;;;;;;;27.63;15.00;;;15.90;47.20;;;;;;5013635;28;20396;-75
2022/10/13 09:19:26;;;;;;;25.63;14.83;;;16.00;46.40;;;;;;5014242;28;20388;-76
2022/10/13 09:21:55;;;;;;;28.02;15.05;;;16.20;45.20;;;;;;5013597;28;20492;-77
2022/10/13 09:24:22;;;;;;;25.75;14.50;;;16.40;43.70;;;;;;5015152;28;20392;-76
2022/10/13 09:27:00;;;;;;;25.10;15.45;;;16.50;42.70;;;;;;5014527;28;20429;-76
2022/10/13 09:29:26;;;;;;;26.95;14.93;;;16.50;42.90;;;;;;5014644;28;20424;-77
2022/10/13 09:32:16;;;;;;;28.13;15.85;;;16.70;42.30;;;;;;5014431;28;20757;-76
2022/10/13 09:34:42;;;;;;;24.17;14.60;;;17.00;41.00;;;;;;5014622;28;20392;-77
2022/10/13 09:37:22;;;;;;;24.27;15.00;;;17.20;40.00;;;;;;5014366;28;20396;-76
2022/10/13 09:40:19;;;;;;;25.75;14.60;;;17.50;37.90;;;;;;5013683;28;20699;-76
2022/10/13 09:42:51;;;;;;;24.48;14.02;;;17.80;36.80;;;;;;5013061;28;21196;-76
2022/10/13 09:45:22;;;;;;;30.27;15.50;;;18.00;35.80;;;;;;5013168;28;20385;-76
2022/10/13 09:47:54;;;;;;;30.15;15.00;;;18.00;34.90;;;;;;5013417;28;20468;-76
2022/10/13 09:50:24;;;;;;;32.22;15.60;;;18.10;35.00;;;;;;5013205;28;20774;-77
2022/10/13 09:52:50;;;;;;;23.17;14.70;;;18.30;35.10;;;;;;5012720;28;20410;-76
2022/10/13 09:55:34;;;;;;;31.70;14.50;;;18.40;33.90;;;;;;5028884;23;20441;-75
2022/10/13 09:58:06;;;;;;;26.97;14.80;;;18.60;32.60;;;;;;5014644;28;20383;-73
2022/10/13 10:00:32;;;;;;;22.35;14.35;;;18.70;32.40;;;;;;5014188;28;20405;-74
2022/10/13 10:03:09;;;;;;;28.33;14.48;;;18.40;33.20;;;;;;5014969;28;20833;-74
2022/10/13 10:05:34;;;;;;;27.00;15.00;;;18.20;33.70;;;;;;5016322;28;20388;-74
2022/10/13 10:08:10;;;;;;;26.80;14.10;;;18.10;34.50;;;;;;5019576;28;20432;-75
2022/10/13 10:10:39;;;;;;;26.65;14.70;;;18.10;34.20;;;;;;5018335;28;20396;-73
2022/10/13 10:13:04;;;;;;;22.20;14.10;;;18.00;34.90;;;;;;5016240;28;20392;-73
2022/10/13 10:16:02;;;;;;;26.75;14.60;;;17.90;35.10;;;;;;5020108;28;20754;-74
2022/10/13 10:18:40;;;;;;;26.25;14.73;;;17.80;35.80;;;;;;5033256;28;20389;-73
2022/10/13 10:21:17;;;;;;;25.10;14.68;;;17.90;35.70;;;;;;5019390;28;20789;-74
2022/10/13 10:23:50;;;;;;;26.08;14.13;;;17.90;36.30;;;;;;5033950;28;20389;-72
2022/10/13 10:26:49;;;;;;;31.67;14.85;;;17.90;36.10;;;;;;5032768;28;20416;-76
2022/10/13 10:29:25;;;;;;;22.77;14.63;;;17.90;36.10;;;;;;5031727;28;20404;-73
2022/10/13 10:31:58;;;;;;;29.67;15.40;;;17.90;36.00;;;;;;5017554;28;20388;-74
2022/10/13 10:34:27;;;;;;;28.20;14.57;;;18.00;36.00;;;;;;5012514;28;20385;-73
2022/10/13 10:37:14;;;;;;;26.67;14.85;;;18.00;35.80;;;;;;5012189;28;20469;-75
2022/10/13 10:39:50;;;;;;;31.23;16.10;;;18.10;35.90;;;;;;5012439;28;20384;-72
2022/10/13 10:42:42;;;;;;;28.60;13.45;;;18.20;34.90;;;;;;5011140;28;20401;-74
2022/10/13 10:45:23;;;;;;;26.92;14.95;;;18.40;34.70;;;;;;5012570;28;20486;-73
2022/10/13 10:47:53;;;;;;;26.10;13.40;;;18.40;34.60;;;;;;5012078;28;20391;-73
2022/10/13 10:50:20;;;;;;;22.75;14.18;;;18.60;34.70;;;;;;5012624;28;20396;-74
2022/10/13 10:52:58;;;;;;;23.42;12.90;;;18.70;34.10;;;;;;5014026;28;20494;-73
2022/10/13 10:55:46;;;;;;;27.42;13.60;;;18.80;34.60;;;;;;5020992;28;20893;-74
2022/10/13 10:58:30;;;;;;;26.35;13.65;;;18.80;34.60;;;;;;5019938;28;20419;-74
2022/10/13 11:01:11;;;;;;;28.65;13.98;;;19.10;34.10;;;;;;5020101;28;20405;-73
2022/10/13 11:03:54;;;;;;;29.83;13.77;;;19.10;33.50;;;;;;5016499;28;20464;-73
2022/10/13 11:06:32;;;;;;;24.30;13.90;;;19.20;32.60;;;;;;5018639;28;20396;-74
2022/10/13 11:08:58;;;;;;;25.15;14.30;;;19.20;32.90;;;;;;5015037;28;20392;-74
2022/10/13 11:11:30;;;;;;;27.75;14.27;;;19.30;33.10;;;;;;5016503;28;20421;-74
2022/10/13 11:14:23;;;;;;;24.88;13.02;;;19.30;33.00;;;;;;5016112;28;20434;-74
2022/10/13 11:17:01;;;;;;;25.35;12.77;;;19.20;32.80;;;;;;5017636;28;20814;-75
2022/10/13 11:19:34;;;;;;;21.42;13.40;;;19.20;33.10;;;;;;5017970;28;20396;-73
2022/10/13 11:21:59;;;;;;;21.05;13.13;;;19.10;33.30;;;;;;5017167;28;21008;-74
2022/10/13 11:24:40;;;;;;;25.33;12.70;;;19.10;33.20;;;;;;5017620;28;20428;-71
2022/10/13 11:27:15;;;;;;;23.65;13.65;;;18.90;34.00;;;;;;5017739;28;20446;-73
2022/10/13 11:29:53;;;;;;;24.38;14.35;;;18.80;34.60;;;;;;5020126;28;20447;-72
2022/10/13 11:35:09;;;;;;;24.42;13.27;;;18.80;35.00;;;;;;5021898;28;20474;-73
2022/10/13 11:37:43;;;;;;;26.73;13.23;;;18.60;35.90;;;;;;5023103;28;20385;-74
2022/10/13 11:40:51;;;;;;;24.27;13.77;;;18.60;36.40;;;;;;5021195;28;20385;-73
2022/10/13 11:43:54;;;;;;;27.23;12.48;;;18.60;35.70;;;;;;5006469;28;20423;-74
2022/10/13 11:47:20;;;;;;;27.38;11.70;;;18.50;36.50;;;;;;5010693;28;20427;-74
2022/10/13 11:50:01;;;;;;;22.42;14.00;;;18.50;37.00;;;;;;5011840;28;20397;-73
2022/10/13 11:52:32;;;;;;;22.30;12.27;;;18.20;38.60;;;;;;5020584;28;20431;-74
2022/10/13 11:55:09;;;;;;;21.10;10.57;;;18.10;39.30;;;;;;5021725;28;20500;-75
2022/10/13 11:57:35;;;;;;;12.77;7.00;;;18.10;37.40;;;;;;5020524;28;20471;-74
2022/10/13 12:00:00;;;;;;;13.90;5.70;;;18.00;37.30;;;;;;5018886;28;20416;-73
2022/10/13 12:02:27;;;;;;;10.68;6.10;;;18.10;36.60;;;;;;5017633;28;20393;-73
2022/10/13 12:05:21;;;;;;;10.90;6.32;;;17.90;37.00;;;;;;5016718;28;20451;-73
2022/10/13 12:07:48;;;;;;;14.40;6.82;;;17.70;38.20;;;;;;5014985;28;20396;-75
2022/10/13 12:10:31;;;;;;;15.55;7.50;;;17.70;39.60;;;;;;5017766;28;20384;-74
2022/10/13 12:12:57;;;;;;;13.38;7.38;;;17.50;40.60;;;;;;5018920;28;20393;-75
2022/10/13 12:15:41;;;;;;;14.25;7.50;;;17.40;41.90;;;;;;5019984;28;20385;-74
2022/10/13 12:18:27;;;;;;;13.90;7.70;;;17.40;43.50;;;;;;5019004;28;20385;-75
2022/10/13 12:20:55;;;;;;;17.63;7.70;;;17.30;44.10;;;;;;5020569;28;20431;-73
2022/10/13 12:23:21;;;;;;;14.57;7.50;;;17.20;45.70;;;;;;5016168;28;20392;-72
2022/10/13 12:25:55;;;;;;;14.93;7.82;;;17.10;45.10;;;;;;5015889;28;20385;-74
2022/10/13 12:28:20;;;;;;;14.67;7.83;;;17.10;45.90;;;;;;5009746;28;20548;-72
2022/10/13 12:30:55;;;;;;;11.23;7.80;;;17.20;46.10;;;;;;5019462;28;20423;-74
2022/10/13 12:33:34;;;;;;;16.88;8.57;;;17.40;47.60;;;;;;5004783;28;20883;-74
2022/10/13 12:36:34;;;;;;;17.60;8.10;;;17.30;48.80;;;;;;4995365;28;20779;-73
2022/10/13 12:39:05;;;;;;;15.50;8.20;;;17.20;47.90;;;;;;4995520;28;20609;-73
2022/10/13 12:41:43;;;;;;;16.95;7.82;;;17.30;48.90;;;;;;4994331;28;20413;-73
2022/10/13 12:44:16;;;;;;;13.38;7.30;;;17.40;49.60;;;;;;5013247;28;20395;-75
2022/10/13 12:47:02;;;;;;;13.52;7.47;;;17.70;45.90;;;;;;5007667;28;20410;-72